sensor_id;sensor_type;location;lat;lon;timestamp;P1;durP1;ratioP1;P2;durP2;ratioP2
53309;SDS011;39197;53.200;5.792;2022-08-03T00:01:29;9.07;;;3.97;;
53309;SDS011;39197;53.200;5.792;2022-08-03T00:03:54;9.90;;;4.55;;
53309;SDS011;39197;53.200;5.792;2022-08-03T00:06:20;10.63;;;4.93;;
53309;SDS011;39197;53.200;5.792;2022-08-03T00:08:46;11.48;;;4.50;;
53309;SDS011;39197;53.200;5.792;2022-08-03T00:11:12;18.48;;;4.50;;
53309;SDS011;39197;53.200;5.792;2022-08-03T00:13:37;13.13;;;4.72;;
53309;SDS011;39197;53.200;5.792;2022-08-03T00:16:03;9.30;;;4.20;;
53309;SDS011;39197;53.200;5.792;2022-08-03T00:18:29;12.00;;;4.32;;
53309;SDS011;39197;53.200;5.792;2022-08-03T00:20:55;12.70;;;5.00;;
53309;SDS011;39197;53.200;5.792;2022-08-03T00:23:20;12.27;;;4.07;;
53309;SDS011;39197;53.200;5.792;2022-08-03T00:25:46;7.15;;;3.33;;
53309;SDS011;39197;53.200;5.792;2022-08-03T00:28:11;12.52;;;4.65;;
53309;SDS011;39197;53.200;5.792;2022-08-03T00:30:37;13.43;;;4.22;;
53309;SDS011;39197;53.200;5.792;2022-08-03T00:33:02;9.73;;;3.88;;
53309;SDS011;39197;53.200;5.792;2022-08-03T00:35:28;13.35;;;3.60;;
53309;SDS011;39197;53.200;5.792;2022-08-03T00:37:54;8.98;;;3.97;;
53309;SDS011;39197;53.200;5.792;2022-08-03T00:40:20;9.32;;;5.10;;
53309;SDS011;39197;53.200;5.792;2022-08-03T00:42:53;10.52;;;3.72;;
53309;SDS011;39197;53.200;5.792;2022-08-03T00:45:21;8.38;;;3.70;;
53309;SDS011;39197;53.200;5.792;2022-08-03T00:47:58;12.07;;;3.92;;
53309;SDS011;39197;53.200;5.792;2022-08-03T00:50:25;14.77;;;4.50;;
53309;SDS011;39197;53.200;5.792;2022-08-03T00:52:53;10.60;;;3.30;;
53309;SDS011;39197;53.200;5.792;2022-08-03T00:55:19;10.10;;;3.15;;
53309;SDS011;39197;53.200;5.792;2022-08-03T00:57:46;11.00;;;3.13;;
53309;SDS011;39197;53.200;5.792;2022-08-03T01:00:13;12.07;;;4.20;;
53309;SDS011;39197;53.200;5.792;2022-08-03T01:02:42;15.18;;;4.40;;
53309;SDS011;39197;53.200;5.792;2022-08-03T01:05:08;9.32;;;3.50;;
53309;SDS011;39197;53.200;5.792;2022-08-03T01:15:53;13.27;;;4.07;;
53309;SDS011;39197;53.200;5.792;2022-08-03T01:21:20;10.90;;;3.55;;
53309;SDS011;39197;53.200;5.792;2022-08-03T01:26:48;11.75;;;4.10;;
53309;SDS011;39197;53.200;5.792;2022-08-03T01:32:10;10.75;;;4.00;;
53309;SDS011;39197;53.200;5.792;2022-08-03T01:34:50;9.15;;;3.63;;
53309;SDS011;39197;53.200;5.792;2022-08-03T01:37:34;12.25;;;4.07;;
53309;SDS011;39197;53.200;5.792;2022-08-03T01:40:20;12.15;;;3.58;;
53309;SDS011;39197;53.200;5.792;2022-08-03T01:42:47;12.07;;;3.95;;
53309;SDS011;39197;53.200;5.792;2022-08-03T01:45:15;11.05;;;3.75;;
53309;SDS011;39197;53.200;5.792;2022-08-03T01:47:43;13.63;;;4.10;;
53309;SDS011;39197;53.200;5.792;2022-08-03T01:50:10;10.98;;;4.70;;
53309;SDS011;39197;53.200;5.792;2022-08-03T01:52:38;11.50;;;4.00;;
53309;SDS011;39197;53.200;5.792;2022-08-03T01:55:06;11.07;;;4.47;;
53309;SDS011;39197;53.200;5.792;2022-08-03T01:57:33;15.38;;;5.28;;
53309;SDS011;39197;53.200;5.792;2022-08-03T02:00:00;9.60;;;4.30;;
53309;SDS011;39197;53.200;5.792;2022-08-03T02:02:27;12.05;;;4.00;;
53309;SDS011;39197;53.200;5.792;2022-08-03T02:04:55;15.82;;;5.50;;
53309;SDS011;39197;53.200;5.792;2022-08-03T02:07:24;11.32;;;4.43;;
53309;SDS011;39197;53.200;5.792;2022-08-03T02:09:51;14.85;;;4.10;;
53309;SDS011;39197;53.200;5.792;2022-08-03T02:12:18;13.40;;;4.63;;
53309;SDS011;39197;53.200;5.792;2022-08-03T02:14:46;15.02;;;5.55;;
53309;SDS011;39197;53.200;5.792;2022-08-03T02:17:13;12.45;;;4.93;;
53309;SDS011;39197;53.200;5.792;2022-08-03T02:19:39;16.27;;;5.15;;
53309;SDS011;39197;53.200;5.792;2022-08-03T02:22:07;13.48;;;4.72;;
53309;SDS011;39197;53.200;5.792;2022-08-03T02:24:35;10.27;;;3.50;;
53309;SDS011;39197;53.200;5.792;2022-08-03T02:27:00;14.13;;;4.53;;
53309;SDS011;39197;53.200;5.792;2022-08-03T02:29:32;8.82;;;3.85;;
53309;SDS011;39197;53.200;5.792;2022-08-03T02:31:59;11.18;;;4.30;;
53309;SDS011;39197;53.200;5.792;2022-08-03T02:34:28;15.90;;;5.25;;
53309;SDS011;39197;53.200;5.792;2022-08-03T02:36:57;14.25;;;5.22;;
53309;SDS011;39197;53.200;5.792;2022-08-03T02:39:24;15.80;;;4.20;;
53309;SDS011;39197;53.200;5.792;2022-08-03T02:41:55;11.75;;;4.18;;
53309;SDS011;39197;53.200;5.792;2022-08-03T02:44:26;11.48;;;3.70;;
53309;SDS011;39197;53.200;5.792;2022-08-03T02:46:56;17.77;;;4.55;;
53309;SDS011;39197;53.200;5.792;2022-08-03T02:49:25;13.57;;;4.28;;
53309;SDS011;39197;53.200;5.792;2022-08-03T02:51:52;12.13;;;4.45;;
53309;SDS011;39197;53.200;5.792;2022-08-03T02:54:19;17.88;;;4.47;;
53309;SDS011;39197;53.200;5.792;2022-08-03T02:56:47;12.63;;;3.83;;
53309;SDS011;39197;53.200;5.792;2022-08-03T02:59:13;14.50;;;4.05;;
53309;SDS011;39197;53.200;5.792;2022-08-03T03:01:41;21.30;;;3.95;;
53309;SDS011;39197;53.200;5.792;2022-08-03T03:04:08;13.73;;;4.18;;
53309;SDS011;39197;53.200;5.792;2022-08-03T03:06:35;12.70;;;3.90;;
53309;SDS011;39197;53.200;5.792;2022-08-03T03:09:02;15.27;;;4.07;;
53309;SDS011;39197;53.200;5.792;2022-08-03T03:11:28;10.43;;;3.47;;
53309;SDS011;39197;53.200;5.792;2022-08-03T03:13:55;15.25;;;4.07;;
53309;SDS011;39197;53.200;5.792;2022-08-03T03:16:21;14.40;;;3.72;;
53309;SDS011;39197;53.200;5.792;2022-08-03T03:18:49;12.82;;;3.70;;
53309;SDS011;39197;53.200;5.792;2022-08-03T03:21:16;12.95;;;3.92;;
53309;SDS011;39197;53.200;5.792;2022-08-03T03:23:44;11.40;;;3.55;;
53309;SDS011;39197;53.200;5.792;2022-08-03T03:26:10;9.93;;;4.18;;
53309;SDS011;39197;53.200;5.792;2022-08-03T03:28:38;13.15;;;3.60;;
53309;SDS011;39197;53.200;5.792;2022-08-03T03:31:04;10.45;;;3.17;;
53309;SDS011;39197;53.200;5.792;2022-08-03T03:33:31;14.60;;;3.72;;
53309;SDS011;39197;53.200;5.792;2022-08-03T03:35:58;15.52;;;4.10;;
53309;SDS011;39197;53.200;5.792;2022-08-03T03:38:24;19.70;;;4.95;;
53309;SDS011;39197;53.200;5.792;2022-08-03T03:40:49;15.95;;;3.42;;
53309;SDS011;39197;53.200;5.792;2022-08-03T03:43:15;13.55;;;4.10;;
53309;SDS011;39197;53.200;5.792;2022-08-03T03:45:42;12.50;;;3.85;;
53309;SDS011;39197;53.200;5.792;2022-08-03T03:48:09;12.93;;;3.70;;
53309;SDS011;39197;53.200;5.792;2022-08-03T03:50:35;11.68;;;3.70;;
53309;SDS011;39197;53.200;5.792;2022-08-03T03:53:04;10.75;;;4.07;;
53309;SDS011;39197;53.200;5.792;2022-08-03T03:55:34;10.45;;;3.72;;
53309;SDS011;39197;53.200;5.792;2022-08-03T03:57:59;13.95;;;3.90;;
53309;SDS011;39197;53.200;5.792;2022-08-03T04:00:25;8.68;;;4.18;;
53309;SDS011;39197;53.200;5.792;2022-08-03T04:02:51;17.70;;;4.15;;
53309;SDS011;39197;53.200;5.792;2022-08-03T04:05:16;13.98;;;4.13;;
53309;SDS011;39197;53.200;5.792;2022-08-03T04:08:02;10.60;;;3.70;;
53309;SDS011;39197;53.200;5.792;2022-08-03T04:13:54;16.27;;;4.63;;
53309;SDS011;39197;53.200;5.792;2022-08-03T04:16:25;12.98;;;3.85;;
53309;SDS011;39197;53.200;5.792;2022-08-03T04:18:56;12.73;;;3.05;;
53309;SDS011;39197;53.200;5.792;2022-08-03T04:23:53;14.82;;;4.25;;
53309;SDS011;39197;53.200;5.792;2022-08-03T04:26:28;12.52;;;3.80;;
53309;SDS011;39197;53.200;5.792;2022-08-03T04:28:57;14.43;;;4.00;;
53309;SDS011;39197;53.200;5.792;2022-08-03T04:31:24;11.18;;;3.20;;
53309;SDS011;39197;53.200;5.792;2022-08-03T04:33:51;12.73;;;3.67;;
53309;SDS011;39197;53.200;5.792;2022-08-03T04:36:22;15.93;;;3.63;;
53309;SDS011;39197;53.200;5.792;2022-08-03T04:41:35;16.00;;;4.57;;
53309;SDS011;39197;53.200;5.792;2022-08-03T04:44:03;14.98;;;3.70;;
53309;SDS011;39197;53.200;5.792;2022-08-03T04:46:31;21.35;;;4.40;;
53309;SDS011;39197;53.200;5.792;2022-08-03T04:48:59;12.82;;;3.88;;
53309;SDS011;39197;53.200;5.792;2022-08-03T04:51:26;17.85;;;4.05;;
53309;SDS011;39197;53.200;5.792;2022-08-03T04:53:52;19.20;;;4.47;;
53309;SDS011;39197;53.200;5.792;2022-08-03T04:56:17;16.63;;;3.88;;
53309;SDS011;39197;53.200;5.792;2022-08-03T04:58:43;11.25;;;3.92;;
53309;SDS011;39197;53.200;5.792;2022-08-03T05:01:08;10.52;;;3.78;;
53309;SDS011;39197;53.200;5.792;2022-08-03T05:03:34;15.45;;;3.70;;
53309;SDS011;39197;53.200;5.792;2022-08-03T05:06:00;12.25;;;2.92;;
53309;SDS011;39197;53.200;5.792;2022-08-03T05:08:25;13.77;;;3.10;;
53309;SDS011;39197;53.200;5.792;2022-08-03T05:10:51;15.07;;;4.03;;
53309;SDS011;39197;53.200;5.792;2022-08-03T05:13:17;12.15;;;2.63;;
53309;SDS011;39197;53.200;5.792;2022-08-03T05:15:42;15.63;;;3.15;;
53309;SDS011;39197;53.200;5.792;2022-08-03T05:18:08;13.77;;;3.08;;
53309;SDS011;39197;53.200;5.792;2022-08-03T05:20:34;17.45;;;3.67;;
53309;SDS011;39197;53.200;5.792;2022-08-03T05:22:59;13.73;;;3.75;;
53309;SDS011;39197;53.200;5.792;2022-08-03T05:25:27;15.18;;;4.57;;
53309;SDS011;39197;53.200;5.792;2022-08-03T05:27:53;15.45;;;4.43;;
53309;SDS011;39197;53.200;5.792;2022-08-03T05:30:19;12.55;;;3.50;;
53309;SDS011;39197;53.200;5.792;2022-08-03T05:32:45;10.32;;;3.13;;
53309;SDS011;39197;53.200;5.792;2022-08-03T05:35:10;13.10;;;3.22;;
53309;SDS011;39197;53.200;5.792;2022-08-03T05:37:36;13.75;;;3.25;;
53309;SDS011;39197;53.200;5.792;2022-08-03T05:40:02;13.57;;;2.85;;
53309;SDS011;39197;53.200;5.792;2022-08-03T05:42:28;15.52;;;3.28;;
53309;SDS011;39197;53.200;5.792;2022-08-03T05:44:54;22.33;;;4.05;;
53309;SDS011;39197;53.200;5.792;2022-08-03T05:47:20;18.40;;;4.68;;
53309;SDS011;39197;53.200;5.792;2022-08-03T05:49:45;12.90;;;3.10;;
53309;SDS011;39197;53.200;5.792;2022-08-03T05:52:11;11.82;;;2.85;;
53309;SDS011;39197;53.200;5.792;2022-08-03T05:54:36;15.38;;;4.03;;
53309;SDS011;39197;53.200;5.792;2022-08-03T05:57:02;20.23;;;3.85;;
53309;SDS011;39197;53.200;5.792;2022-08-03T05:59:27;14.52;;;3.70;;
53309;SDS011;39197;53.200;5.792;2022-08-03T06:01:53;16.48;;;2.45;;
53309;SDS011;39197;53.200;5.792;2022-08-03T06:04:18;20.52;;;3.33;;
53309;SDS011;39197;53.200;5.792;2022-08-03T06:06:44;14.40;;;3.50;;
53309;SDS011;39197;53.200;5.792;2022-08-03T06:09:10;18.20;;;3.30;;
53309;SDS011;39197;53.200;5.792;2022-08-03T06:11:36;17.65;;;3.15;;
53309;SDS011;39197;53.200;5.792;2022-08-03T06:14:02;15.68;;;4.03;;
53309;SDS011;39197;53.200;5.792;2022-08-03T06:16:27;13.70;;;3.42;;
53309;SDS011;39197;53.200;5.792;2022-08-03T06:18:53;16.40;;;3.53;;
53309;SDS011;39197;53.200;5.792;2022-08-03T06:21:19;11.50;;;2.92;;
53309;SDS011;39197;53.200;5.792;2022-08-03T06:23:45;14.75;;;2.80;;
53309;SDS011;39197;53.200;5.792;2022-08-03T06:26:11;18.73;;;3.95;;
53309;SDS011;39197;53.200;5.792;2022-08-03T06:28:37;16.98;;;3.33;;
53309;SDS011;39197;53.200;5.792;2022-08-03T06:31:03;19.02;;;4.55;;
53309;SDS011;39197;53.200;5.792;2022-08-03T06:33:29;15.32;;;3.13;;
53309;SDS011;39197;53.200;5.792;2022-08-03T06:35:54;14.35;;;3.92;;
53309;SDS011;39197;53.200;5.792;2022-08-03T06:38:20;15.23;;;3.28;;
53309;SDS011;39197;53.200;5.792;2022-08-03T06:40:46;13.65;;;3.40;;
53309;SDS011;39197;53.200;5.792;2022-08-03T06:43:11;17.25;;;4.28;;
53309;SDS011;39197;53.200;5.792;2022-08-03T06:45:39;14.52;;;4.57;;
53309;SDS011;39197;53.200;5.792;2022-08-03T06:48:06;12.30;;;3.25;;
53309;SDS011;39197;53.200;5.792;2022-08-03T06:50:34;14.43;;;3.90;;
53309;SDS011;39197;53.200;5.792;2022-08-03T06:53:00;18.73;;;5.03;;
53309;SDS011;39197;53.200;5.792;2022-08-03T06:55:26;20.95;;;4.70;;
53309;SDS011;39197;53.200;5.792;2022-08-03T06:57:52;17.98;;;4.78;;
53309;SDS011;39197;53.200;5.792;2022-08-03T07:00:18;14.95;;;4.03;;
53309;SDS011;39197;53.200;5.792;2022-08-03T07:02:44;15.25;;;3.25;;
53309;SDS011;39197;53.200;5.792;2022-08-03T07:05:10;13.30;;;3.03;;
53309;SDS011;39197;53.200;5.792;2022-08-03T07:07:36;13.05;;;3.05;;
53309;SDS011;39197;53.200;5.792;2022-08-03T07:10:03;11.93;;;3.30;;
53309;SDS011;39197;53.200;5.792;2022-08-03T07:12:29;19.20;;;4.60;;
53309;SDS011;39197;53.200;5.792;2022-08-03T07:14:56;20.10;;;4.45;;
53309;SDS011;39197;53.200;5.792;2022-08-03T07:17:23;11.10;;;3.33;;
53309;SDS011;39197;53.200;5.792;2022-08-03T07:19:48;12.93;;;3.58;;
53309;SDS011;39197;53.200;5.792;2022-08-03T07:22:14;15.55;;;3.55;;
53309;SDS011;39197;53.200;5.792;2022-08-03T07:24:40;17.08;;;4.35;;
53309;SDS011;39197;53.200;5.792;2022-08-03T07:27:08;15.55;;;3.97;;
53309;SDS011;39197;53.200;5.792;2022-08-03T07:29:35;18.90;;;4.18;;
53309;SDS011;39197;53.200;5.792;2022-08-03T07:32:01;19.17;;;3.58;;
53309;SDS011;39197;53.200;5.792;2022-08-03T07:34:28;16.13;;;4.00;;
53309;SDS011;39197;53.200;5.792;2022-08-03T07:36:54;14.55;;;3.15;;
53309;SDS011;39197;53.200;5.792;2022-08-03T07:39:19;18.85;;;5.13;;
53309;SDS011;39197;53.200;5.792;2022-08-03T07:41:45;13.57;;;3.78;;
53309;SDS011;39197;53.200;5.792;2022-08-03T07:44:11;14.98;;;4.72;;
53309;SDS011;39197;53.200;5.792;2022-08-03T07:46:37;18.95;;;4.93;;
53309;SDS011;39197;53.200;5.792;2022-08-03T07:49:03;18.27;;;4.25;;
53309;SDS011;39197;53.200;5.792;2022-08-03T07:51:29;11.38;;;3.88;;
53309;SDS011;39197;53.200;5.792;2022-08-03T07:53:54;16.02;;;4.60;;
53309;SDS011;39197;53.200;5.792;2022-08-03T07:56:21;13.50;;;3.88;;
53309;SDS011;39197;53.200;5.792;2022-08-03T07:58:49;14.13;;;4.25;;
53309;SDS011;39197;53.200;5.792;2022-08-03T08:01:15;15.00;;;4.53;;
53309;SDS011;39197;53.200;5.792;2022-08-03T08:03:43;14.68;;;4.03;;
53309;SDS011;39197;53.200;5.792;2022-08-03T08:06:09;17.40;;;5.45;;
53309;SDS011;39197;53.200;5.792;2022-08-03T08:08:35;16.58;;;4.55;;
53309;SDS011;39197;53.200;5.792;2022-08-03T08:11:02;16.30;;;5.10;;
53309;SDS011;39197;53.200;5.792;2022-08-03T08:13:28;14.50;;;5.18;;
53309;SDS011;39197;53.200;5.792;2022-08-03T08:15:53;18.48;;;5.38;;
53309;SDS011;39197;53.200;5.792;2022-08-03T08:18:19;18.77;;;5.65;;
53309;SDS011;39197;53.200;5.792;2022-08-03T08:20:44;21.42;;;5.80;;
53309;SDS011;39197;53.200;5.792;2022-08-03T08:23:10;15.35;;;5.72;;
53309;SDS011;39197;53.200;5.792;2022-08-03T08:25:36;17.13;;;6.38;;
53309;SDS011;39197;53.200;5.792;2022-08-03T08:28:01;19.50;;;5.50;;
53309;SDS011;39197;53.200;5.792;2022-08-03T08:30:28;16.10;;;5.47;;
53309;SDS011;39197;53.200;5.792;2022-08-03T08:32:57;20.52;;;6.00;;
53309;SDS011;39197;53.200;5.792;2022-08-03T08:35:23;19.65;;;6.35;;
53309;SDS011;39197;53.200;5.792;2022-08-03T08:37:49;19.50;;;6.00;;
53309;SDS011;39197;53.200;5.792;2022-08-03T08:40:14;20.67;;;6.05;;
53309;SDS011;39197;53.200;5.792;2022-08-03T08:42:40;20.08;;;6.13;;
53309;SDS011;39197;53.200;5.792;2022-08-03T08:45:07;25.52;;;8.30;;
53309;SDS011;39197;53.200;5.792;2022-08-03T08:47:36;18.33;;;5.90;;
53309;SDS011;39197;53.200;5.792;2022-08-03T08:50:04;19.25;;;5.40;;
53309;SDS011;39197;53.200;5.792;2022-08-03T08:52:32;16.02;;;5.75;;
53309;SDS011;39197;53.200;5.792;2022-08-03T08:55:00;17.20;;;5.40;;
53309;SDS011;39197;53.200;5.792;2022-08-03T08:57:35;17.08;;;5.32;;
53309;SDS011;39197;53.200;5.792;2022-08-03T09:00:08;15.93;;;5.35;;
53309;SDS011;39197;53.200;5.792;2022-08-03T09:02:38;17.92;;;5.15;;
53309;SDS011;39197;53.200;5.792;2022-08-03T09:05:06;18.45;;;5.72;;
53309;SDS011;39197;53.200;5.792;2022-08-03T09:07:35;13.57;;;4.47;;
53309;SDS011;39197;53.200;5.792;2022-08-03T09:10:01;18.33;;;6.05;;
53309;SDS011;39197;53.200;5.792;2022-08-03T09:12:27;17.25;;;5.25;;
53309;SDS011;39197;53.200;5.792;2022-08-03T09:14:53;16.65;;;6.05;;
53309;SDS011;39197;53.200;5.792;2022-08-03T09:17:19;17.67;;;5.43;;
53309;SDS011;39197;53.200;5.792;2022-08-03T09:20:02;20.23;;;5.60;;
53309;SDS011;39197;53.200;5.792;2022-08-03T09:22:30;15.25;;;6.22;;
53309;SDS011;39197;53.200;5.792;2022-08-03T09:24:59;14.18;;;4.85;;
53309;SDS011;39197;53.200;5.792;2022-08-03T09:27:27;19.02;;;5.82;;
53309;SDS011;39197;53.200;5.792;2022-08-03T09:29:53;14.95;;;5.68;;
53309;SDS011;39197;53.200;5.792;2022-08-03T09:32:23;23.90;;;6.75;;
53309;SDS011;39197;53.200;5.792;2022-08-03T09:34:49;21.90;;;7.40;;
53309;SDS011;39197;53.200;5.792;2022-08-03T09:37:17;20.40;;;5.95;;
53309;SDS011;39197;53.200;5.792;2022-08-03T09:39:44;16.17;;;6.68;;
53309;SDS011;39197;53.200;5.792;2022-08-03T09:42:15;16.10;;;6.30;;
53309;SDS011;39197;53.200;5.792;2022-08-03T09:44:45;18.45;;;7.07;;
53309;SDS011;39197;53.200;5.792;2022-08-03T09:47:13;19.83;;;6.57;;
53309;SDS011;39197;53.200;5.792;2022-08-03T09:49:41;19.52;;;6.85;;
53309;SDS011;39197;53.200;5.792;2022-08-03T09:52:19;16.75;;;6.72;;
53309;SDS011;39197;53.200;5.792;2022-08-03T09:54:50;22.75;;;6.40;;
53309;SDS011;39197;53.200;5.792;2022-08-03T09:57:22;19.50;;;6.95;;
53309;SDS011;39197;53.200;5.792;2022-08-03T09:59:50;17.80;;;7.20;;
53309;SDS011;39197;53.200;5.792;2022-08-03T10:02:24;16.02;;;6.35;;
53309;SDS011;39197;53.200;5.792;2022-08-03T10:04:51;27.33;;;7.50;;
53309;SDS011;39197;53.200;5.792;2022-08-03T10:07:19;18.55;;;6.25;;
53309;SDS011;39197;53.200;5.792;2022-08-03T10:09:59;17.30;;;5.97;;
53309;SDS011;39197;53.200;5.792;2022-08-03T10:12:26;13.85;;;4.40;;
53309;SDS011;39197;53.200;5.792;2022-08-03T10:14:53;16.73;;;6.20;;
53309;SDS011;39197;53.200;5.792;2022-08-03T10:17:22;22.45;;;6.00;;
53309;SDS011;39197;53.200;5.792;2022-08-03T10:19:48;19.50;;;6.00;;
53309;SDS011;39197;53.200;5.792;2022-08-03T10:22:23;20.48;;;6.28;;
53309;SDS011;39197;53.200;5.792;2022-08-03T10:24:55;18.83;;;6.72;;
53309;SDS011;39197;53.200;5.792;2022-08-03T10:27:35;24.50;;;6.75;;
53309;SDS011;39197;53.200;5.792;2022-08-03T10:30:03;19.38;;;5.80;;
53309;SDS011;39197;53.200;5.792;2022-08-03T10:32:35;23.25;;;7.93;;
53309;SDS011;39197;53.200;5.792;2022-08-03T10:35:16;16.33;;;5.18;;
53309;SDS011;39197;53.200;5.792;2022-08-03T10:37:46;19.50;;;6.35;;
53309;SDS011;39197;53.200;5.792;2022-08-03T10:40:17;18.48;;;6.45;;
53309;SDS011;39197;53.200;5.792;2022-08-03T10:42:46;17.98;;;5.65;;
53309;SDS011;39197;53.200;5.792;2022-08-03T10:45:33;14.95;;;4.93;;
53309;SDS011;39197;53.200;5.792;2022-08-03T10:48:03;17.02;;;5.22;;
53309;SDS011;39197;53.200;5.792;2022-08-03T10:50:30;19.85;;;5.80;;
53309;SDS011;39197;53.200;5.792;2022-08-03T10:52:59;17.80;;;5.55;;
53309;SDS011;39197;53.200;5.792;2022-08-03T10:55:39;23.88;;;6.35;;
53309;SDS011;39197;53.200;5.792;2022-08-03T11:01:06;19.73;;;5.07;;
53309;SDS011;39197;53.200;5.792;2022-08-03T11:03:33;16.23;;;4.93;;
53309;SDS011;39197;53.200;5.792;2022-08-03T11:06:24;14.65;;;6.00;;
53309;SDS011;39197;53.200;5.792;2022-08-03T11:11:37;17.45;;;6.15;;
53309;SDS011;39197;53.200;5.792;2022-08-03T11:14:07;20.40;;;7.47;;
53309;SDS011;39197;53.200;5.792;2022-08-03T11:16:45;24.88;;;6.25;;
53309;SDS011;39197;53.200;5.792;2022-08-03T11:19:17;25.80;;;6.53;;
53309;SDS011;39197;53.200;5.792;2022-08-03T11:35:10;19.05;;;6.82;;
53309;SDS011;39197;53.200;5.792;2022-08-03T11:38:00;26.80;;;8.43;;
53309;SDS011;39197;53.200;5.792;2022-08-03T11:45:56;16.98;;;5.65;;
53309;SDS011;39197;53.200;5.792;2022-08-03T11:48:22;17.08;;;5.75;;
53309;SDS011;39197;53.200;5.792;2022-08-03T11:50:52;20.25;;;5.32;;
53309;SDS011;39197;53.200;5.792;2022-08-03T11:53:17;20.33;;;6.07;;
53309;SDS011;39197;53.200;5.792;2022-08-03T11:55:44;20.30;;;4.78;;
53309;SDS011;39197;53.200;5.792;2022-08-03T11:58:16;17.05;;;4.25;;
53309;SDS011;39197;53.200;5.792;2022-08-03T12:00:46;15.45;;;4.03;;
53309;SDS011;39197;53.200;5.792;2022-08-03T12:03:14;20.17;;;4.63;;
53309;SDS011;39197;53.200;5.792;2022-08-03T12:05:44;17.90;;;3.78;;
53309;SDS011;39197;53.200;5.792;2022-08-03T12:08:36;22.20;;;4.78;;
53309;SDS011;39197;53.200;5.792;2022-08-03T12:11:02;15.68;;;3.72;;
53309;SDS011;39197;53.200;5.792;2022-08-03T12:13:46;16.58;;;3.90;;
53309;SDS011;39197;53.200;5.792;2022-08-03T12:16:17;16.77;;;3.08;;
53309;SDS011;39197;53.200;5.792;2022-08-03T12:19:01;12.07;;;3.50;;
53309;SDS011;39197;53.200;5.792;2022-08-03T12:21:29;18.30;;;3.45;;
53309;SDS011;39197;53.200;5.792;2022-08-03T12:23:56;16.55;;;4.57;;
53309;SDS011;39197;53.200;5.792;2022-08-03T12:26:26;20.80;;;4.15;;
53309;SDS011;39197;53.200;5.792;2022-08-03T12:29:06;19.00;;;5.05;;
53309;SDS011;39197;53.200;5.792;2022-08-03T12:31:31;17.90;;;4.20;;
53309;SDS011;39197;53.200;5.792;2022-08-03T12:36:27;19.60;;;4.72;;
53309;SDS011;39197;53.200;5.792;2022-08-03T12:38:55;13.73;;;3.80;;
53309;SDS011;39197;53.200;5.792;2022-08-03T12:41:32;14.98;;;3.45;;
53309;SDS011;39197;53.200;5.792;2022-08-03T12:43:59;12.70;;;3.40;;
53309;SDS011;39197;53.200;5.792;2022-08-03T12:46:31;16.65;;;4.38;;
53309;SDS011;39197;53.200;5.792;2022-08-03T12:49:07;21.45;;;4.35;;
53309;SDS011;39197;53.200;5.792;2022-08-03T12:54:07;23.35;;;3.95;;
53309;SDS011;39197;53.200;5.792;2022-08-03T12:56:33;12.70;;;3.65;;
53309;SDS011;39197;53.200;5.792;2022-08-03T12:59:00;17.75;;;3.80;;
53309;SDS011;39197;53.200;5.792;2022-08-03T13:01:45;14.65;;;4.25;;
53309;SDS011;39197;53.200;5.792;2022-08-03T13:04:11;16.08;;;5.25;;
53309;SDS011;39197;53.200;5.792;2022-08-03T13:06:37;14.77;;;4.53;;
53309;SDS011;39197;53.200;5.792;2022-08-03T13:09:03;16.75;;;3.28;;
53309;SDS011;39197;53.200;5.792;2022-08-03T13:11:30;25.15;;;4.22;;
53309;SDS011;39197;53.200;5.792;2022-08-03T13:13:56;14.43;;;2.88;;
53309;SDS011;39197;53.200;5.792;2022-08-03T13:16:22;17.95;;;4.40;;
53309;SDS011;39197;53.200;5.792;2022-08-03T13:18:48;15.00;;;4.35;;
53309;SDS011;39197;53.200;5.792;2022-08-03T13:21:16;18.38;;;4.90;;
53309;SDS011;39197;53.200;5.792;2022-08-03T13:23:43;18.65;;;5.82;;
53309;SDS011;39197;53.200;5.792;2022-08-03T13:26:09;16.30;;;4.60;;
53309;SDS011;39197;53.200;5.792;2022-08-03T13:28:35;17.52;;;3.55;;
53309;SDS011;39197;53.200;5.792;2022-08-03T13:31:01;14.80;;;3.33;;
53309;SDS011;39197;53.200;5.792;2022-08-03T13:33:27;14.40;;;4.32;;
53309;SDS011;39197;53.200;5.792;2022-08-03T13:35:53;15.00;;;3.80;;
53309;SDS011;39197;53.200;5.792;2022-08-03T13:38:19;14.68;;;4.13;;
53309;SDS011;39197;53.200;5.792;2022-08-03T13:40:44;16.55;;;4.88;;
53309;SDS011;39197;53.200;5.792;2022-08-03T13:43:10;12.95;;;3.95;;
53309;SDS011;39197;53.200;5.792;2022-08-03T13:45:36;16.90;;;4.35;;
53309;SDS011;39197;53.200;5.792;2022-08-03T13:48:02;15.98;;;3.03;;
53309;SDS011;39197;53.200;5.792;2022-08-03T13:50:28;12.20;;;4.20;;
53309;SDS011;39197;53.200;5.792;2022-08-03T13:52:55;11.20;;;3.78;;
53309;SDS011;39197;53.200;5.792;2022-08-03T13:55:22;13.85;;;3.78;;
53309;SDS011;39197;53.200;5.792;2022-08-03T13:57:48;11.95;;;2.65;;
53309;SDS011;39197;53.200;5.792;2022-08-03T14:00:14;10.90;;;3.40;;
53309;SDS011;39197;53.200;5.792;2022-08-03T14:02:41;10.73;;;3.70;;
53309;SDS011;39197;53.200;5.792;2022-08-03T14:05:06;16.38;;;3.95;;
53309;SDS011;39197;53.200;5.792;2022-08-03T14:07:32;15.90;;;4.20;;
53309;SDS011;39197;53.200;5.792;2022-08-03T14:09:58;15.02;;;3.90;;
53309;SDS011;39197;53.200;5.792;2022-08-03T14:12:25;24.30;;;4.82;;
53309;SDS011;39197;53.200;5.792;2022-08-03T14:14:51;17.48;;;3.63;;
53309;SDS011;39197;53.200;5.792;2022-08-03T14:17:16;16.20;;;4.20;;
53309;SDS011;39197;53.200;5.792;2022-08-03T14:19:42;14.95;;;3.20;;
53309;SDS011;39197;53.200;5.792;2022-08-03T14:22:08;12.07;;;3.28;;
53309;SDS011;39197;53.200;5.792;2022-08-03T14:24:33;16.42;;;4.15;;
53309;SDS011;39197;53.200;5.792;2022-08-03T14:26:59;13.57;;;3.65;;
53309;SDS011;39197;53.200;5.792;2022-08-03T14:29:24;20.73;;;3.55;;
53309;SDS011;39197;53.200;5.792;2022-08-03T14:31:50;15.60;;;3.72;;
53309;SDS011;39197;53.200;5.792;2022-08-03T14:34:15;18.50;;;4.13;;
53309;SDS011;39197;53.200;5.792;2022-08-03T14:36:41;12.20;;;3.22;;
53309;SDS011;39197;53.200;5.792;2022-08-03T14:39:07;11.48;;;4.53;;
53309;SDS011;39197;53.200;5.792;2022-08-03T14:41:33;11.73;;;4.00;;
53309;SDS011;39197;53.200;5.792;2022-08-03T14:43:58;18.13;;;3.35;;
53309;SDS011;39197;53.200;5.792;2022-08-03T14:46:24;16.95;;;4.28;;
53309;SDS011;39197;53.200;5.792;2022-08-03T14:48:49;16.25;;;5.07;;
53309;SDS011;39197;53.200;5.792;2022-08-03T14:51:15;13.85;;;4.68;;
53309;SDS011;39197;53.200;5.792;2022-08-03T14:53:43;12.80;;;3.55;;
53309;SDS011;39197;53.200;5.792;2022-08-03T14:56:08;14.15;;;3.28;;
53309;SDS011;39197;53.200;5.792;2022-08-03T14:58:34;16.08;;;3.40;;
53309;SDS011;39197;53.200;5.792;2022-08-03T15:00:59;14.55;;;3.25;;
53309;SDS011;39197;53.200;5.792;2022-08-03T15:03:25;14.48;;;4.22;;
53309;SDS011;39197;53.200;5.792;2022-08-03T15:05:54;11.35;;;3.53;;
53309;SDS011;39197;53.200;5.792;2022-08-03T15:08:21;17.13;;;4.80;;
53309;SDS011;39197;53.200;5.792;2022-08-03T15:10:48;9.93;;;3.58;;
53309;SDS011;39197;53.200;5.792;2022-08-03T15:13:15;16.45;;;3.72;;
53309;SDS011;39197;53.200;5.792;2022-08-03T15:15:43;12.50;;;3.22;;
53309;SDS011;39197;53.200;5.792;2022-08-03T15:18:09;13.05;;;3.33;;
53309;SDS011;39197;53.200;5.792;2022-08-03T15:20:35;14.40;;;3.65;;
53309;SDS011;39197;53.200;5.792;2022-08-03T15:23:00;11.48;;;3.55;;
53309;SDS011;39197;53.200;5.792;2022-08-03T15:25:26;12.98;;;3.70;;
53309;SDS011;39197;53.200;5.792;2022-08-03T15:27:52;19.02;;;3.33;;
53309;SDS011;39197;53.200;5.792;2022-08-03T15:30:18;12.23;;;2.80;;
53309;SDS011;39197;53.200;5.792;2022-08-03T15:32:43;15.77;;;3.90;;
53309;SDS011;39197;53.200;5.792;2022-08-03T15:35:09;15.93;;;2.90;;